sensor_id;sensor_type;location;lat;lon;timestamp;P1;durP1;ratioP1;P2;durP2;ratioP2
11522;SDS011;40093;43.224;27.910;2023-03-17T00:00:13;7.93;;;6.37;;
11522;SDS011;40093;43.224;27.910;2023-03-17T00:02:42;7.10;;;6.20;;
11522;SDS011;40093;43.224;27.910;2023-03-17T00:05:15;7.77;;;5.97;;
11522;SDS011;40093;43.224;27.910;2023-03-17T00:07:44;8.03;;;6.33;;
11522;SDS011;40093;43.224;27.910;2023-03-17T00:10:13;6.37;;;5.77;;
11522;SDS011;40093;43.224;27.910;2023-03-17T00:12:42;6.57;;;5.60;;
11522;SDS011;40093;43.224;27.910;2023-03-17T00:15:11;7.57;;;6.30;;
11522;SDS011;40093;43.224;27.910;2023-03-17T00:17:39;7.80;;;6.37;;
11522;SDS011;40093;43.224;27.910;2023-03-17T00:20:09;7.17;;;5.93;;
11522;SDS011;40093;43.224;27.910;2023-03-17T00:22:40;7.40;;;5.63;;
11522;SDS011;40093;43.224;27.910;2023-03-17T00:25:15;7.20;;;6.17;;
11522;SDS011;40093;43.224;27.910;2023-03-17T00:27:44;8.40;;;6.10;;
11522;SDS011;40093;43.224;27.910;2023-03-17T00:30:12;7.93;;;6.30;;
11522;SDS011;40093;43.224;27.910;2023-03-17T00:32:39;6.37;;;5.77;;
11522;SDS011;40093;43.224;27.910;2023-03-17T00:35:13;7.87;;;6.17;;
11522;SDS011;40093;43.224;27.910;2023-03-17T00:37:42;6.53;;;5.83;;
11522;SDS011;40093;43.224;27.910;2023-03-17T00:40:13;8.30;;;6.47;;
11522;SDS011;40093;43.224;27.910;2023-03-17T00:42:41;7.10;;;6.27;;
11522;SDS011;40093;43.224;27.910;2023-03-17T00:45:09;6.90;;;6.20;;
11522;SDS011;40093;43.224;27.910;2023-03-17T00:47:37;6.23;;;5.63;;
11522;SDS011;40093;43.224;27.910;2023-03-17T00:50:05;7.67;;;5.63;;
11522;SDS011;40093;43.224;27.910;2023-03-17T00:52:35;6.50;;;5.60;;
11522;SDS011;40093;43.224;27.910;2023-03-17T00:55:03;6.10;;;5.50;;
11522;SDS011;40093;43.224;27.910;2023-03-17T00:57:32;6.37;;;4.83;;
11522;SDS011;40093;43.224;27.910;2023-03-17T00:59:59;6.17;;;5.43;;
11522;SDS011;40093;43.224;27.910;2023-03-17T01:02:27;6.00;;;5.40;;
11522;SDS011;40093;43.224;27.910;2023-03-17T01:04:56;5.50;;;4.73;;
11522;SDS011;40093;43.224;27.910;2023-03-17T01:07:24;6.30;;;5.07;;
11522;SDS011;40093;43.224;27.910;2023-03-17T01:09:52;5.70;;;5.00;;
11522;SDS011;40093;43.224;27.910;2023-03-17T01:12:20;6.23;;;4.80;;
11522;SDS011;40093;43.224;27.910;2023-03-17T01:14:46;5.27;;;4.77;;
11522;SDS011;40093;43.224;27.910;2023-03-17T01:17:14;6.93;;;4.83;;
11522;SDS011;40093;43.224;27.910;2023-03-17T01:19:42;6.33;;;4.50;;
11522;SDS011;40093;43.224;27.910;2023-03-17T01:22:11;6.30;;;4.50;;
11522;SDS011;40093;43.224;27.910;2023-03-17T01:24:38;5.57;;;3.97;;
11522;SDS011;40093;43.224;27.910;2023-03-17T01:27:05;6.37;;;4.60;;
11522;SDS011;40093;43.224;27.910;2023-03-17T01:29:33;6.13;;;4.50;;
11522;SDS011;40093;43.224;27.910;2023-03-17T01:32:00;4.77;;;4.27;;
11522;SDS011;40093;43.224;27.910;2023-03-17T01:34:28;4.63;;;4.17;;
11522;SDS011;40093;43.224;27.910;2023-03-17T01:36:55;4.70;;;4.10;;
11522;SDS011;40093;43.224;27.910;2023-03-17T01:39:23;5.87;;;4.40;;
11522;SDS011;40093;43.224;27.910;2023-03-17T01:41:51;6.77;;;3.80;;
11522;SDS011;40093;43.224;27.910;2023-03-17T01:44:21;5.73;;;3.70;;
11522;SDS011;40093;43.224;27.910;2023-03-17T01:46:49;5.03;;;3.93;;
11522;SDS011;40093;43.224;27.910;2023-03-17T01:49:21;5.07;;;4.57;;
11522;SDS011;40093;43.224;27.910;2023-03-17T01:51:55;4.30;;;3.90;;
11522;SDS011;40093;43.224;27.910;2023-03-17T01:54:29;4.17;;;3.77;;
11522;SDS011;40093;43.224;27.910;2023-03-17T01:57:02;4.77;;;4.00;;
11522;SDS011;40093;43.224;27.910;2023-03-17T01:59:35;11.97;;;6.67;;
11522;SDS011;40093;43.224;27.910;2023-03-17T02:02:10;6.13;;;4.10;;
11522;SDS011;40093;43.224;27.910;2023-03-17T02:04:40;5.70;;;4.53;;
11522;SDS011;40093;43.224;27.910;2023-03-17T02:07:07;4.93;;;4.43;;
11522;SDS011;40093;43.224;27.910;2023-03-17T02:09:36;5.07;;;4.27;;
11522;SDS011;40093;43.224;27.910;2023-03-17T02:12:04;5.53;;;4.93;;
11522;SDS011;40093;43.224;27.910;2023-03-17T02:14:33;7.80;;;5.77;;
11522;SDS011;40093;43.224;27.910;2023-03-17T02:17:00;9.20;;;6.27;;
11522;SDS011;40093;43.224;27.910;2023-03-17T02:19:28;5.60;;;4.60;;
11522;SDS011;40093;43.224;27.910;2023-03-17T02:21:56;10.07;;;6.27;;
11522;SDS011;40093;43.224;27.910;2023-03-17T02:24:26;5.53;;;4.70;;
11522;SDS011;40093;43.224;27.910;2023-03-17T02:26:59;6.87;;;5.30;;
11522;SDS011;40093;43.224;27.910;2023-03-17T02:29:30;6.10;;;5.50;;
11522;SDS011;40093;43.224;27.910;2023-03-17T02:31:59;6.47;;;5.30;;
11522;SDS011;40093;43.224;27.910;2023-03-17T02:34:26;5.87;;;4.67;;
11522;SDS011;40093;43.224;27.910;2023-03-17T02:36:53;5.27;;;4.77;;
11522;SDS011;40093;43.224;27.910;2023-03-17T02:39:22;6.40;;;5.37;;
11522;SDS011;40093;43.224;27.910;2023-03-17T02:41:49;5.50;;;5.00;;
11522;SDS011;40093;43.224;27.910;2023-03-17T02:44:17;5.50;;;4.57;;
11522;SDS011;40093;43.224;27.910;2023-03-17T02:46:44;5.90;;;4.00;;
11522;SDS011;40093;43.224;27.910;2023-03-17T02:49:11;9.10;;;6.50;;
11522;SDS011;40093;43.224;27.910;2023-03-17T02:51:39;5.57;;;5.03;;
11522;SDS011;40093;43.224;27.910;2023-03-17T02:54:06;5.40;;;4.73;;
11522;SDS011;40093;43.224;27.910;2023-03-17T02:56:34;5.80;;;4.73;;
11522;SDS011;40093;43.224;27.910;2023-03-17T02:59:01;5.40;;;4.90;;
11522;SDS011;40093;43.224;27.910;2023-03-17T03:01:29;6.67;;;4.93;;
11522;SDS011;40093;43.224;27.910;2023-03-17T03:03:56;6.60;;;4.67;;
11522;SDS011;40093;43.224;27.910;2023-03-17T03:06:23;6.17;;;4.80;;
11522;SDS011;40093;43.224;27.910;2023-03-17T03:08:50;5.40;;;4.83;;
11522;SDS011;40093;43.224;27.910;2023-03-17T03:11:17;6.13;;;4.47;;
11522;SDS011;40093;43.224;27.910;2023-03-17T03:13:46;4.87;;;4.27;;
11522;SDS011;40093;43.224;27.910;2023-03-17T03:16:12;4.90;;;4.40;;
11522;SDS011;40093;43.224;27.910;2023-03-17T03:18:41;6.50;;;4.50;;
11522;SDS011;40093;43.224;27.910;2023-03-17T03:21:08;6.50;;;4.83;;
11522;SDS011;40093;43.224;27.910;2023-03-17T03:23:35;7.33;;;4.77;;
11522;SDS011;40093;43.224;27.910;2023-03-17T03:26:02;5.40;;;4.30;;
11522;SDS011;40093;43.224;27.910;2023-03-17T03:28:29;5.33;;;4.10;;
11522;SDS011;40093;43.224;27.910;2023-03-17T03:30:58;6.53;;;4.20;;
11522;SDS011;40093;43.224;27.910;2023-03-17T03:33:25;8.37;;;4.30;;
11522;SDS011;40093;43.224;27.910;2023-03-17T03:35:52;5.23;;;4.33;;
11522;SDS011;40093;43.224;27.910;2023-03-17T03:38:19;5.57;;;3.83;;
11522;SDS011;40093;43.224;27.910;2023-03-17T03:40:46;5.70;;;4.53;;
11522;SDS011;40093;43.224;27.910;2023-03-17T03:43:13;6.03;;;4.33;;
11522;SDS011;40093;43.224;27.910;2023-03-17T03:45:40;5.60;;;4.20;;
11522;SDS011;40093;43.224;27.910;2023-03-17T03:48:08;5.80;;;4.60;;
11522;SDS011;40093;43.224;27.910;2023-03-17T03:50:36;6.90;;;5.20;;
11522;SDS011;40093;43.224;27.910;2023-03-17T03:53:03;6.00;;;4.47;;
11522;SDS011;40093;43.224;27.910;2023-03-17T03:55:30;4.60;;;4.10;;
11522;SDS011;40093;43.224;27.910;2023-03-17T03:57:57;4.67;;;4.27;;
11522;SDS011;40093;43.224;27.910;2023-03-17T04:00:24;5.00;;;4.50;;
11522;SDS011;40093;43.224;27.910;2023-03-17T04:02:51;5.57;;;4.20;;
11522;SDS011;40093;43.224;27.910;2023-03-17T04:05:20;4.87;;;4.37;;
11522;SDS011;40093;43.224;27.910;2023-03-17T04:07:47;5.47;;;4.37;;
11522;SDS011;40093;43.224;27.910;2023-03-17T04:10:14;5.40;;;4.30;;
11522;SDS011;40093;43.224;27.910;2023-03-17T04:12:42;6.30;;;4.27;;
11522;SDS011;40093;43.224;27.910;2023-03-17T04:15:10;4.47;;;3.93;;
11522;SDS011;40093;43.224;27.910;2023-03-17T04:17:41;5.50;;;4.27;;
11522;SDS011;40093;43.224;27.910;2023-03-17T04:20:09;9.00;;;7.27;;
11522;SDS011;40093;43.224;27.910;2023-03-17T04:22:39;6.93;;;4.20;;
11522;SDS011;40093;43.224;27.910;2023-03-17T04:25:07;6.23;;;3.80;;
11522;SDS011;40093;43.224;27.910;2023-03-17T04:27:35;5.03;;;3.90;;
11522;SDS011;40093;43.224;27.910;2023-03-17T04:30:02;5.80;;;5.20;;
11522;SDS011;40093;43.224;27.910;2023-03-17T04:32:30;5.83;;;4.10;;
11522;SDS011;40093;43.224;27.910;2023-03-17T04:34:56;4.47;;;3.60;;
11522;SDS011;40093;43.224;27.910;2023-03-17T04:37:23;6.13;;;4.10;;
11522;SDS011;40093;43.224;27.910;2023-03-17T04:39:52;6.60;;;5.00;;
11522;SDS011;40093;43.224;27.910;2023-03-17T04:42:19;4.73;;;3.90;;
11522;SDS011;40093;43.224;27.910;2023-03-17T04:44:46;4.33;;;3.93;;
11522;SDS011;40093;43.224;27.910;2023-03-17T04:47:13;4.63;;;4.07;;
11522;SDS011;40093;43.224;27.910;2023-03-17T04:49:40;5.83;;;4.77;;
11522;SDS011;40093;43.224;27.910;2023-03-17T04:52:07;6.57;;;3.80;;
11522;SDS011;40093;43.224;27.910;2023-03-17T04:54:36;4.97;;;3.77;;
11522;SDS011;40093;43.224;27.910;2023-03-17T04:57:05;5.20;;;3.93;;
11522;SDS011;40093;43.224;27.910;2023-03-17T04:59:31;5.43;;;4.40;;
11522;SDS011;40093;43.224;27.910;2023-03-17T05:02:00;5.53;;;4.30;;
11522;SDS011;40093;43.224;27.910;2023-03-17T05:04:27;5.30;;;4.00;;
11522;SDS011;40093;43.224;27.910;2023-03-17T05:06:54;4.77;;;3.90;;
11522;SDS011;40093;43.224;27.910;2023-03-17T05:09:22;6.63;;;3.60;;
11522;SDS011;40093;43.224;27.910;2023-03-17T05:11:49;5.50;;;3.80;;
11522;SDS011;40093;43.224;27.910;2023-03-17T05:14:18;6.43;;;3.93;;
11522;SDS011;40093;43.224;27.910;2023-03-17T05:16:45;4.83;;;3.80;;
11522;SDS011;40093;43.224;27.910;2023-03-17T05:19:13;4.73;;;3.80;;
11522;SDS011;40093;43.224;27.910;2023-03-17T05:21:39;3.90;;;3.40;;
11522;SDS011;40093;43.224;27.910;2023-03-17T05:24:06;6.27;;;4.00;;
11522;SDS011;40093;43.224;27.910;2023-03-17T05:26:34;6.57;;;3.73;;
11522;SDS011;40093;43.224;27.910;2023-03-17T05:29:00;4.83;;;4.10;;
11522;SDS011;40093;43.224;27.910;2023-03-17T05:31:29;5.33;;;3.80;;
11522;SDS011;40093;43.224;27.910;2023-03-17T05:33:56;5.37;;;3.70;;
11522;SDS011;40093;43.224;27.910;2023-03-17T05:36:23;5.40;;;3.90;;
11522;SDS011;40093;43.224;27.910;2023-03-17T05:38:50;6.67;;;3.87;;
11522;SDS011;40093;43.224;27.910;2023-03-17T05:41:17;4.27;;;3.30;;
11522;SDS011;40093;43.224;27.910;2023-03-17T05:43:44;4.63;;;3.60;;
11522;SDS011;40093;43.224;27.910;2023-03-17T05:46:11;5.07;;;3.70;;
11522;SDS011;40093;43.224;27.910;2023-03-17T05:48:39;3.87;;;3.37;;
11522;SDS011;40093;43.224;27.910;2023-03-17T05:51:06;5.83;;;3.67;;
11522;SDS011;40093;43.224;27.910;2023-03-17T05:53:33;5.30;;;3.80;;
11522;SDS011;40093;43.224;27.910;2023-03-17T05:56:01;5.57;;;3.73;;
11522;SDS011;40093;43.224;27.910;2023-03-17T05:58:28;6.13;;;3.67;;
11522;SDS011;40093;43.224;27.910;2023-03-17T06:00:55;3.77;;;3.33;;
11522;SDS011;40093;43.224;27.910;2023-03-17T06:03:22;6.00;;;3.80;;
11522;SDS011;40093;43.224;27.910;2023-03-17T06:05:50;5.20;;;3.30;;
11522;SDS011;40093;43.224;27.910;2023-03-17T06:08:17;5.57;;;3.63;;
11522;SDS011;40093;43.224;27.910;2023-03-17T06:10:45;5.77;;;4.00;;
11522;SDS011;40093;43.224;27.910;2023-03-17T06:13:12;4.93;;;3.67;;
11522;SDS011;40093;43.224;27.910;2023-03-17T06:15:39;7.80;;;4.17;;
11522;SDS011;40093;43.224;27.910;2023-03-17T06:18:07;7.63;;;4.03;;
11522;SDS011;40093;43.224;27.910;2023-03-17T06:20:34;5.47;;;3.77;;
11522;SDS011;40093;43.224;27.910;2023-03-17T06:23:03;7.60;;;4.10;;
11522;SDS011;40093;43.224;27.910;2023-03-17T06:25:31;4.93;;;3.80;;
11522;SDS011;40093;43.224;27.910;2023-03-17T06:27:58;6.10;;;3.63;;
11522;SDS011;40093;43.224;27.910;2023-03-17T06:30:26;11.80;;;4.17;;
11522;SDS011;40093;43.224;27.910;2023-03-17T06:32:53;6.33;;;4.07;;
11522;SDS011;40093;43.224;27.910;2023-03-17T06:35:20;6.03;;;3.97;;
11522;SDS011;40093;43.224;27.910;2023-03-17T06:37:47;6.27;;;4.13;;
11522;SDS011;40093;43.224;27.910;2023-03-17T06:40:16;5.63;;;3.67;;
11522;SDS011;40093;43.224;27.910;2023-03-17T06:42:43;6.60;;;3.77;;
11522;SDS011;40093;43.224;27.910;2023-03-17T06:45:10;6.97;;;4.90;;
11522;SDS011;40093;43.224;27.910;2023-03-17T06:47:37;5.63;;;3.50;;
11522;SDS011;40093;43.224;27.910;2023-03-17T06:50:04;7.57;;;4.00;;
11522;SDS011;40093;43.224;27.910;2023-03-17T06:52:33;8.53;;;4.10;;
11522;SDS011;40093;43.224;27.910;2023-03-17T06:55:00;6.93;;;4.30;;
11522;SDS011;40093;43.224;27.910;2023-03-17T06:57:30;6.50;;;3.73;;
11522;SDS011;40093;43.224;27.910;2023-03-17T06:59:57;6.00;;;4.10;;
11522;SDS011;40093;43.224;27.910;2023-03-17T07:02:24;5.30;;;3.83;;
11522;SDS011;40093;43.224;27.910;2023-03-17T07:04:52;8.50;;;3.93;;
11522;SDS011;40093;43.224;27.910;2023-03-17T07:07:18;7.23;;;3.90;;
11522;SDS011;40093;43.224;27.910;2023-03-17T07:09:46;7.90;;;4.47;;
11522;SDS011;40093;43.224;27.910;2023-03-17T07:12:13;7.23;;;4.27;;
11522;SDS011;40093;43.224;27.910;2023-03-17T07:14:41;6.90;;;3.80;;
11522;SDS011;40093;43.224;27.910;2023-03-17T07:17:09;6.77;;;3.70;;
11522;SDS011;40093;43.224;27.910;2023-03-17T07:19:37;7.43;;;4.77;;
11522;SDS011;40093;43.224;27.910;2023-03-17T07:22:04;8.20;;;3.90;;
11522;SDS011;40093;43.224;27.910;2023-03-17T07:24:31;7.03;;;4.17;;
11522;SDS011;40093;43.224;27.910;2023-03-17T07:26:58;6.33;;;3.40;;
11522;SDS011;40093;43.224;27.910;2023-03-17T07:29:25;5.50;;;3.30;;
11522;SDS011;40093;43.224;27.910;2023-03-17T07:31:54;5.27;;;3.10;;
11522;SDS011;40093;43.224;27.910;2023-03-17T07:34:21;5.17;;;2.80;;
11522;SDS011;40093;43.224;27.910;2023-03-17T07:36:48;5.93;;;3.60;;
11522;SDS011;40093;43.224;27.910;2023-03-17T07:39:15;7.63;;;3.27;;
11522;SDS011;40093;43.224;27.910;2023-03-17T07:41:42;5.40;;;3.30;;
11522;SDS011;40093;43.224;27.910;2023-03-17T07:44:11;4.93;;;3.50;;
11522;SDS011;40093;43.224;27.910;2023-03-17T07:46:37;6.03;;;3.13;;
11522;SDS011;40093;43.224;27.910;2023-03-17T07:49:06;5.80;;;3.17;;
11522;SDS011;40093;43.224;27.910;2023-03-17T07:51:33;9.00;;;3.50;;
11522;SDS011;40093;43.224;27.910;2023-03-17T07:54:00;3.73;;;2.70;;
11522;SDS011;40093;43.224;27.910;2023-03-17T07:56:30;4.53;;;2.53;;
11522;SDS011;40093;43.224;27.910;2023-03-17T07:58:57;3.73;;;2.50;;
11522;SDS011;40093;43.224;27.910;2023-03-17T08:01:24;5.97;;;2.90;;
11522;SDS011;40093;43.224;27.910;2023-03-17T08:03:51;3.97;;;2.63;;
11522;SDS011;40093;43.224;27.910;2023-03-17T08:06:20;7.17;;;3.93;;
11522;SDS011;40093;43.224;27.910;2023-03-17T08:08:49;4.60;;;2.60;;
11522;SDS011;40093;43.224;27.910;2023-03-17T08:11:16;4.07;;;2.13;;
11522;SDS011;40093;43.224;27.910;2023-03-17T08:13:44;4.57;;;2.57;;
11522;SDS011;40093;43.224;27.910;2023-03-17T08:16:11;6.13;;;3.03;;
11522;SDS011;40093;43.224;27.910;2023-03-17T08:18:38;7.70;;;4.47;;
11522;SDS011;40093;43.224;27.910;2023-03-17T08:21:05;4.33;;;2.70;;
11522;SDS011;40093;43.224;27.910;2023-03-17T08:23:33;8.23;;;3.37;;
11522;SDS011;40093;43.224;27.910;2023-03-17T08:26:01;5.93;;;2.80;;
11522;SDS011;40093;43.224;27.910;2023-03-17T08:28:29;3.20;;;2.43;;
11522;SDS011;40093;43.224;27.910;2023-03-17T08:31:04;5.27;;;3.00;;
11522;SDS011;40093;43.224;27.910;2023-03-17T08:33:33;3.40;;;2.43;;
11522;SDS011;40093;43.224;27.910;2023-03-17T08:36:02;4.20;;;2.90;;
11522;SDS011;40093;43.224;27.910;2023-03-17T08:38:32;6.20;;;3.20;;
11522;SDS011;40093;43.224;27.910;2023-03-17T08:41:00;7.67;;;3.57;;
11522;SDS011;40093;43.224;27.910;2023-03-17T08:43:27;4.77;;;2.47;;
11522;SDS011;40093;43.224;27.910;2023-03-17T08:45:58;4.00;;;2.30;;
11522;SDS011;40093;43.224;27.910;2023-03-17T08:48:27;5.17;;;2.50;;
11522;SDS011;40093;43.224;27.910;2023-03-17T08:50:55;4.30;;;2.80;;
11522;SDS011;40093;43.224;27.910;2023-03-17T08:53:22;3.50;;;2.50;;
11522;SDS011;40093;43.224;27.910;2023-03-17T08:55:51;4.03;;;2.77;;
11522;SDS011;40093;43.224;27.910;2023-03-17T08:58:21;4.20;;;2.50;;
11522;SDS011;40093;43.224;27.910;2023-03-17T09:00:47;6.67;;;3.93;;
11522;SDS011;40093;43.224;27.910;2023-03-17T09:03:15;8.83;;;3.57;;
11522;SDS011;40093;43.224;27.910;2023-03-17T09:05:42;6.90;;;3.20;;
11522;SDS011;40093;43.224;27.910;2023-03-17T09:08:09;5.37;;;3.00;;
11522;SDS011;40093;43.224;27.910;2023-03-17T09:10:37;3.80;;;3.03;;
11522;SDS011;40093;43.224;27.910;2023-03-17T09:13:07;3.70;;;2.40;;
11522;SDS011;40093;43.224;27.910;2023-03-17T09:15:34;3.20;;;2.50;;
11522;SDS011;40093;43.224;27.910;2023-03-17T09:18:02;3.97;;;2.20;;
11522;SDS011;40093;43.224;27.910;2023-03-17T09:20:29;4.77;;;2.70;;
11522;SDS011;40093;43.224;27.910;2023-03-17T09:22:56;4.83;;;2.53;;
11522;SDS011;40093;43.224;27.910;2023-03-17T09:25:23;12.33;;;6.10;;
11522;SDS011;40093;43.224;27.910;2023-03-17T09:27:51;11.77;;;5.27;;
11522;SDS011;40093;43.224;27.910;2023-03-17T09:30:20;5.47;;;3.20;;
11522;SDS011;40093;43.224;27.910;2023-03-17T09:32:47;5.33;;;3.27;;
11522;SDS011;40093;43.224;27.910;2023-03-17T09:35:13;8.80;;;5.30;;
11522;SDS011;40093;43.224;27.910;2023-03-17T09:37:40;10.10;;;5.63;;
11522;SDS011;40093;43.224;27.910;2023-03-17T09:40:09;15.73;;;8.33;;
11522;SDS011;40093;43.224;27.910;2023-03-17T09:42:43;16.10;;;7.77;;
11522;SDS011;40093;43.224;27.910;2023-03-17T09:45:22;5.43;;;3.03;;
11522;SDS011;40093;43.224;27.910;2023-03-17T09:50:48;2.67;;;2.33;;
11522;SDS011;40093;43.224;27.910;2023-03-17T09:53:20;4.37;;;2.67;;
11522;SDS011;40093;43.224;27.910;2023-03-17T09:55:50;7.77;;;5.70;;
11522;SDS011;40093;43.224;27.910;2023-03-17T09:58:21;6.23;;;3.43;;
11522;SDS011;40093;43.224;27.910;2023-03-17T10:00:58;4.93;;;3.03;;
11522;SDS011;40093;43.224;27.910;2023-03-17T10:03:27;12.10;;;5.63;;
11522;SDS011;40093;43.224;27.910;2023-03-17T10:05:57;8.83;;;4.60;;
11522;SDS011;40093;43.224;27.910;2023-03-17T10:08:37;4.20;;;2.30;;
11522;SDS011;40093;43.224;27.910;2023-03-17T10:11:10;5.37;;;2.60;;
11522;SDS011;40093;43.224;27.910;2023-03-17T10:13:45;4.37;;;3.10;;
11522;SDS011;40093;43.224;27.910;2023-03-17T10:16:22;4.70;;;3.37;;
11522;SDS011;40093;43.224;27.910;2023-03-17T10:18:56;7.83;;;3.87;;
11522;SDS011;40093;43.224;27.910;2023-03-17T10:21:28;7.27;;;3.70;;
11522;SDS011;40093;43.224;27.910;2023-03-17T10:23:59;5.37;;;3.33;;
11522;SDS011;40093;43.224;27.910;2023-03-17T10:26:29;5.30;;;2.83;;
11522;SDS011;40093;43.224;27.910;2023-03-17T10:28:59;6.07;;;3.40;;
11522;SDS011;40093;43.224;27.910;2023-03-17T10:31:30;7.77;;;3.27;;
11522;SDS011;40093;43.224;27.910;2023-03-17T10:34:03;4.93;;;3.00;;
11522;SDS011;40093;43.224;27.910;2023-03-17T10:36:38;5.17;;;3.00;;
11522;SDS011;40093;43.224;27.910;2023-03-17T10:39:09;3.57;;;2.90;;
11522;SDS011;40093;43.224;27.910;2023-03-17T10:41:39;7.10;;;3.43;;
11522;SDS011;40093;43.224;27.910;2023-03-17T10:44:19;3.83;;;2.70;;
11522;SDS011;40093;43.224;27.910;2023-03-17T10:46:52;3.70;;;2.97;;
11522;SDS011;40093;43.224;27.910;2023-03-17T10:49:20;6.20;;;3.03;;
11522;SDS011;40093;43.224;27.910;2023-03-17T10:51:50;5.33;;;3.60;;
11522;SDS011;40093;43.224;27.910;2023-03-17T10:54:18;6.30;;;3.50;;
11522;SDS011;40093;43.224;27.910;2023-03-17T10:56:49;6.57;;;4.20;;
11522;SDS011;40093;43.224;27.910;2023-03-17T10:59:26;5.80;;;4.10;;
11522;SDS011;40093;43.224;27.910;2023-03-17T11:01:57;6.80;;;4.10;;
11522;SDS011;40093;43.224;27.910;2023-03-17T11:04:27;6.20;;;3.40;;
11522;SDS011;40093;43.224;27.910;2023-03-17T11:06:57;4.40;;;3.67;;
11522;SDS011;40093;43.224;27.910;2023-03-17T11:09:26;5.53;;;3.57;;
11522;SDS011;40093;43.224;27.910;2023-03-17T11:11:59;7.40;;;4.30;;
11522;SDS011;40093;43.224;27.910;2023-03-17T11:14:28;7.60;;;4.10;;
11522;SDS011;40093;43.224;27.910;2023-03-17T11:16:56;5.33;;;2.90;;
11522;SDS011;40093;43.224;27.910;2023-03-17T11:19:28;4.80;;;3.47;;
11522;SDS011;40093;43.224;27.910;2023-03-17T11:22:09;4.20;;;3.80;;
11522;SDS011;40093;43.224;27.910;2023-03-17T11:24:41;4.67;;;3.77;;
11522;SDS011;40093;43.224;27.910;2023-03-17T11:27:23;8.30;;;5.33;;
11522;SDS011;40093;43.224;27.910;2023-03-17T11:32:50;7.00;;;4.03;;
11522;SDS011;40093;43.224;27.910;2023-03-17T11:35:28;5.20;;;3.40;;
11522;SDS011;40093;43.224;27.910;2023-03-17T11:38:14;5.93;;;4.03;;
11522;SDS011;40093;43.224;27.910;2023-03-17T11:40:52;4.80;;;3.70;;
11522;SDS011;40093;43.224;27.910;2023-03-17T11:43:35;6.53;;;4.20;;
11522;SDS011;40093;43.224;27.910;2023-03-17T11:46:14;9.80;;;3.97;;
11522;SDS011;40093;43.224;27.910;2023-03-17T11:48:53;9.60;;;4.20;;
11522;SDS011;40093;43.224;27.910;2023-03-17T11:51:27;4.73;;;3.30;;
11522;SDS011;40093;43.224;27.910;2023-03-17T11:54:08;6.23;;;3.60;;
11522;SDS011;40093;43.224;27.910;2023-03-17T11:56:40;4.43;;;3.43;;
11522;SDS011;40093;43.224;27.910;2023-03-17T11:59:16;5.93;;;3.57;;
11522;SDS011;40093;43.224;27.910;2023-03-17T12:01:53;5.07;;;3.83;;
11522;SDS011;40093;43.224;27.910;2023-03-17T12:04:27;3.80;;;3.27;;
11522;SDS011;40093;43.224;27.910;2023-03-17T12:06:59;6.43;;;3.37;;
11522;SDS011;40093;43.224;27.910;2023-03-17T12:09:35;7.70;;;3.10;;
11522;SDS011;40093;43.224;27.910;2023-03-17T12:12:06;6.90;;;3.53;;
11522;SDS011;40093;43.224;27.910;2023-03-17T12:14:38;3.47;;;2.80;;
11522;SDS011;40093;43.224;27.910;2023-03-17T12:17:10;4.47;;;3.27;;
11522;SDS011;40093;43.224;27.910;2023-03-17T12:19:49;4.23;;;3.03;;
11522;SDS011;40093;43.224;27.910;2023-03-17T12:22:32;6.63;;;3.43;;
11522;SDS011;40093;43.224;27.910;2023-03-17T12:25:04;5.47;;;3.40;;
11522;SDS011;40093;43.224;27.910;2023-03-17T12:27:39;5.03;;;3.53;;
11522;SDS011;40093;43.224;27.910;2023-03-17T12:30:14;5.37;;;2.63;;
11522;SDS011;40093;43.224;27.910;2023-03-17T12:32:51;4.83;;;3.13;;
11522;SDS011;40093;43.224;27.910;2023-03-17T12:35:24;5.33;;;3.03;;
11522;SDS011;40093;43.224;27.910;2023-03-17T12:37:53;3.80;;;2.83;;
11522;SDS011;40093;43.224;27.910;2023-03-17T12:40:24;2.90;;;2.50;;
11522;SDS011;40093;43.224;27.910;2023-03-17T12:42:58;4.67;;;2.77;;
11522;SDS011;40093;43.224;27.910;2023-03-17T12:45:54;5.10;;;3.20;;
11522;SDS011;40093;43.224;27.910;2023-03-17T12:48:40;3.10;;;2.40;;
11522;SDS011;40093;43.224;27.910;2023-03-17T12:54:19;3.97;;;2.57;;
11522;SDS011;40093;43.224;27.910;2023-03-17T12:56:50;4.37;;;3.47;;
11522;SDS011;40093;43.224;27.910;2023-03-17T12:59:18;5.93;;;2.90;;
11522;SDS011;40093;43.224;27.910;2023-03-17T13:01:53;5.33;;;2.90;;
11522;SDS011;40093;43.224;27.910;2023-03-17T13:04:23;4.50;;;2.80;;
11522;SDS011;40093;43.224;27.910;2023-03-17T13:06:53;3.33;;;2.43;;
11522;SDS011;40093;43.224;27.910;2023-03-17T13:09:32;4.80;;;3.00;;
11522;SDS011;40093;43.224;27.910;2023-03-17T13:12:04;4.43;;;2.60;;
11522;SDS011;40093;43.224;27.910;2023-03-17T13:14:40;4.63;;;2.67;;
11522;SDS011;40093;43.224;27.910;2023-03-17T13:20:02;7.73;;;4.40;;
11522;SDS011;40093;43.224;27.910;2023-03-17T13:22:38;7.40;;;4.50;;
11522;SDS011;40093;43.224;27.910;2023-03-17T13:25:24;6.67;;;3.23;;
11522;SDS011;40093;43.224;27.910;2023-03-17T13:28:00;5.67;;;3.40;;
11522;SDS011;40093;43.224;27.910;2023-03-17T13:30:53;3.10;;;2.70;;
11522;SDS011;40093;43.224;27.910;2023-03-17T13:33:39;3.87;;;2.50;;
11522;SDS011;40093;43.224;27.910;2023-03-17T13:39:25;5.10;;;2.80;;
11522;SDS011;40093;43.224;27.910;2023-03-17T13:42:10;4.83;;;2.87;;
11522;SDS011;40093;43.224;27.910;2023-03-17T13:44:56;4.53;;;3.13;;
11522;SDS011;40093;43.224;27.910;2023-03-17T13:47:46;4.07;;;2.90;;
11522;SDS011;40093;43.224;27.910;2023-03-17T13:50:13;5.67;;;3.43;;
11522;SDS011;40093;43.224;27.910;2023-03-17T13:52:44;5.67;;;3.33;;
11522;SDS011;40093;43.224;27.910;2023-03-17T13:55:36;7.47;;;3.83;;
11522;SDS011;40093;43.224;27.910;2023-03-17T13:58:19;5.77;;;3.23;;
11522;SDS011;40093;43.224;27.910;2023-03-17T14:00:55;7.83;;;3.90;;
11522;SDS011;40093;43.224;27.910;2023-03-17T14:03:28;7.40;;;4.70;;
11522;SDS011;40093;43.224;27.910;2023-03-17T14:06:01;4.07;;;3.40;;
11522;SDS011;40093;43.224;27.910;2023-03-17T14:08:30;5.43;;;4.40;;
11522;SDS011;40093;43.224;27.910;2023-03-17T14:11:00;6.20;;;3.83;;
11522;SDS011;40093;43.224;27.910;2023-03-17T14:13:36;4.57;;;3.60;;
11522;SDS011;40093;43.224;27.910;2023-03-17T14:16:13;5.27;;;4.40;;
11522;SDS011;40093;43.224;27.910;2023-03-17T14:18:46;6.17;;;4.67;;
11522;SDS011;40093;43.224;27.910;2023-03-17T14:21:19;7.67;;;5.23;;
11522;SDS011;40093;43.224;27.910;2023-03-17T14:23:52;11.90;;;7.23;;
11522;SDS011;40093;43.224;27.910;2023-03-17T14:26:21;5.90;;;4.50;;
11522;SDS011;40093;43.224;27.910;2023-03-17T14:28:51;6.40;;;5.03;;
11522;SDS011;40093;43.224;27.910;2023-03-17T14:31:20;12.50;;;7.90;;
11522;SDS011;40093;43.224;27.910;2023-03-17T14:33:50;6.57;;;3.90;;
11522;SDS011;40093;43.224;27.910;2023-03-17T14:36:20;5.80;;;3.20;;
11522;SDS011;40093;43.224;27.910;2023-03-17T14:38:48;5.47;;;3.40;;
11522;SDS011;40093;43.224;27.910;2023-03-17T14:41:16;5.43;;;3.00;;
11522;SDS011;40093;43.224;27.910;2023-03-17T14:43:44;3.70;;;3.00;;
11522;SDS011;40093;43.224;27.910;2023-03-17T14:46:13;4.03;;;2.90;;
11522;SDS011;40093;43.224;27.910;2023-03-17T14:48:43;6.67;;;2.73;;
11522;SDS011;40093;43.224;27.910;2023-03-17T14:51:16;4.13;;;3.20;;
11522;SDS011;40093;43.224;27.910;2023-03-17T14:53:51;5.07;;;3.33;;
11522;SDS011;40093;43.224;27.910;2023-03-17T14:56:20;4.63;;;2.70;;
11522;SDS011;40093;43.224;27.910;2023-03-17T14:58:50;6.10;;;2.87;;
11522;SDS011;40093;43.224;27.910;2023-03-17T15:01:19;3.67;;;2.20;;
11522;SDS011;40093;43.224;27.910;2023-03-17T15:03:53;3.47;;;2.23;;